Heaters, West Virginia
Current Conditions -  °F | °C
As of 1:15 PM on Tuesday 21 Oct 2014 (Local Time) from KW22 Reporting Station
Light Rain Light Rain  
Wind Chill: 50°   Ceiling: 2100
Heat Index: 50°   Visibility: 6mi
Dew Point: 50°   Wind: 7mph
Humidity: 100%   Direction: 270°W
Pressure: 29.89"   Gusts: 14mph
Location:  38.76°N, 80.64°W
Report Text: KW22 211715Z AUTO 27006G12KT 6SM -RA SCT007 BKN021 OVC027 10/10 A2989 RMK AO2
Loading
Personal Weather Stations






























Interactive Weather Map New forecast layout! Learn more

10-Day Weather Forecast

Advertisements
Track Severe Weather on mobile